Create Custom Reports and Graphics: Custom Report

North Region Latest Observations

Map

10 Minute Data

Winnemucca/Elko Latest Observations

Map

10 Minute Data

South Region Latest Observations

Map

10 Minute Data

Latest Observation

114 Stations

10 Minute Data
as of 9/2/26 2:52 PM PDT
Station Date Time Temp (°F) RH (%) Dew Pt (°F) Wind Spd (mph) Wind Dir (°) Wind Gust (mph) Wind Gst Dir (°) Latest Rain (In) Soil Moist (%) Soil Temp (°F) Daily Rain (In) Daily Min Temp (°F) Daily Max Temp (°F) Daily Max Wind (mph)
Hobart Mills 9/2/26 1450 59.1   4.8 42   16 35.8   7.9 6.4   1.7 SW | 220 18.8   0.9 SW | 234 0.00 7.5   0.1 63.8   2.1 0.00 44.6   2.1 60.5   6.2 21.4   1.5
Prosser Dam 9/2/26 1450 59.0   6.1 41   15 35.3   6.3 9.1   0.9 SW | 227 20.2   2.9 WSW | 257 0.00 5.3   0.1 61.5   1.5 0.00 41.5   3.9 59.5   9.4 25.5   0.9
West Incline Village 9/2/26 1450 50.1   8.4 49   14 31.7   0.4 7.5   0.5 S | 189 20.6   0.4 SSE | 168 0.00 11.8   0.0 57.7   0.9 0.00 40.4   8.1 51.8   9.4 26.8   6.6
Incline Village (Fairview Blvd) 9/2/26 1450 55.0   5.5 47   10 35.0   1.5 4.8   1.3 SW | 233 13.9   2.2 WSW | 249 0.00 7.7   0.0 70.9   1.0 0.00 42.9   8.1 57.6   6.4 21.2   3.5
Incline Village (Diamond Peak) 9/2/26 1450 52.4   3.9 47   7 32.8   0.5 5.4   2.2 NW | 307 12.9   3.5 NW | 306 0.00 2.5   0.0 59.1   1.9 0.00 40.2   9.3 53.2   7.2 15.5   2.4
Incline Village (Mill Creek) 5/30/36 1610 74.5 37 46.5 0.5 SW | 236 1.7 SSW | 213 0.00 0.0 0.0 0.00 74.4 74.5 1.7
Incline Village (Lakeshore Blvd) 9/2/26 1450 55.8   5.3 56   10 40.3   0.1 7.4   1.0 SW | 230 13.2   2.5 SSW | 212 0.00 22.6   1.7 62.1   0.9 0.00 47.5   0.9 56.3   7.5 18.4   2.7
Glenbrook 9/2/26 1450 57.6   5.5 49   12 38.6   2.2 13.3   4.4 WSW | 244 19.5   3.8 WSW | 254 0.00 43.1   0.1 58.8   0.6 0.00 48.7   2.8 58.8   6.0 26.2   7.2
Zephyr Cove 9/2/26 1450 60.4   5.6 38   10 34.4   3.1 2.2   1.0 SSE | 158 8.2   1.0 SW | 222 0.00 2.8   0.0 64.1   2.6 0.00 45.2   6.3 61.3   7.2 14.7   2.0
Kingsbury Grade 9/2/26 1450 59.9   4.5 37   11 33.8   4.3 2.5   1.4 WSW | 258 9.4   1.4 NNW | 327 0.00 2.2   0.1 65.0   2.6 0.00 41.3   6.4 60.6   5.9 20.5   5.1
South Daggett Pass (Ridge) 9/2/26 1450 53.9   6.6 42   12 31.6   2.5 4.6   1.4 W | 279 18.5   5.3 W | 266 0.00 2.2   0.0 63.2   1.1 0.00 38.5   9.7 55.4   7.5 28.3   7.6
Palomino Valley 9/2/26 1450 66.3   11.4 28   15 32.4   9.0 11.9   0.2 SW | 235 17.0   1.6 SW | 230 0.00 6.6   0.1 75.1   2.2 0.00 49.3   4.0 68.6   10.7 33.4   11.4
East Cold Springs 9/2/26 1450 63.8   7.1 31   10 32.3   3.2 14.8   1.3 SW | 220 24.3   0.2 SW | 222 0.00 1.5   0.1 69.8   1.7 0.00 46.6   9.4 64.8   7.4 27.2   0.8
Peavine 9/2/26 1450 60.2 31 29.3 17.4 SW | 221 34.6 SSW | 208 0.00 4.3 66.1 0.00 51.0 60.8 34.6
West Verdi Peak 9/2/26 1550 58.4   6.0 39   13 33.8   4.9 5.7   0.0 S | 179 17.4   2.7 S | 186 0.00 6.5   0.0 68.1   1.7 0.00 42.8   9.1 59.0   9.6 26.2   0.2
West Verdi 9/2/26 1450 63.7   6.6 33   10 33.9   3.4 9.4   1.5 SSE | 159 25.6   7.2 SSW | 205 0.00 6.2   0.1 78.2   2.4 0.00 50.2   7.6 64.3   9.1 37.6   8.7
South Verdi 9/2/26 1450 62.1   6.6 33   9 32.3   2.2 22.2   5.1 SSW | 208 31.6   1.6 SW | 235 0.00 10.3   0.3 68.9   6.0 0.00 49.1   8.1 62.9   7.2 44.7   6.2
Northwest Reno 9/2/26 1450 63.3   9.0 33   16 34.0   8.3 20.6   7.9 SW | 232 34.4   3.5 SW | 229 0.00 24.9   0.2 74.7   3.7 0.00 52.0   7.1 63.9   9.4 47.9   2.9
North Lawton 8/28/26 1620 63.8   17.1 74   52 55.4   16.5 1.5   11.6 ESE | 121 5.1   19.0 SE | 124 0.00 - 78.2   0.0 0.05 59.2   7.5 71.9   13.3 20.4   4.6
West Reno (Mogul) 9/2/26 1450 62.8   9.3 31   12 31.4   4.7 13.1   4.3 WSW | 250 26.2   5.0 W | 261 0.00 19.6   0.0 78.7   0.4 0.00 51.1   6.1 63.3   10.6 33.3   2.2
Caughlin (Hunter Lake Trail) 9/2/26 1440 62.1   8.8 32   13 31.7   5.2 12.1   3.7 WSW | 242 27.7   5.3 SW | 231 0.00 16.4   0.1 72.7   1.9 0.00 50.0   7.0 62.7   11.3 31.2   0.9
ArrowCreek 9/2/26 1450 64.2   8.5 30   13 32.1   7.3 19.6   7.2 S | 180 40.2   20.5 SSE | 168 0.00 - 32.0   0.0 0.00 50.5   4.9 65.3   8.6 40.2   9.7
Tracy 9/2/26 1450 69.0   9.2 24   8 31.2   2.6 14.8   0.5 WSW | 248 24.8   0.6 W | 270 0.00 15.8   0.2 77.1   2.8 0.00 56.2   5.2 70.0   10.1 29.3   3.6
Virginia Highlands 9/2/26 1450 59.0   9.2 40   19 34.9   7.8 5.1   3.2 WSW | 256 17.0   4.5 SW | 229 0.00 8.0   0.1 74.2   0.6 0.00 48.7   7.2 59.3   11.2 24.6   2.1
Virginia City 9/2/26 1450 59.0   8.3 37   15 33.0   5.5 9.0   3.0 WSW | 251 21.2   0.9 WSW | 239 0.00 4.7   0.1 71.6   2.3 0.00 47.3   8.1 60.1   10.1 30.2   3.1
Six Mile Canyon 9/2/26 1450 68.7   10.3 23   11 29.2   7.8 15.4   3.4 W | 278 23.6   3.2 WNW | 284 0.00 12.1   0.4 74.4   4.1 0.00 54.3   7.3 68.9   11.2 24.7   0.1
Mt Rose Highway 9/2/26 1450 56.3   5.0 37   12 30.3   5.1 5.2   3.7 SW | 216 18.3   3.2 SW | 230 0.00 7.4   0.0 61.4   1.1 0.00 43.0   9.1 56.6   7.4 35.2   7.2
Pleasant Valley 9/2/26 1450 65.2   7.8 32   12 34.6   5.4 19.4   4.4 SW | 225 29.9   5.3 SW | 218 0.00 2.4   0.0 76.3   2.7 0.00 54.6   3.2 66.2   9.0 34.2   3.6
New Washoe City 9/2/26 1450 64.4   5.9 35   13 35.9   6.7 16.0   0.7 WSW | 240 25.2   0.5 WSW | 250 0.00 3.5   0.0 73.3   0.9 0.00 52.3   6.5 65.9   7.5 31.7   1.0
Franktown Creek 9/2/26 1450 64.6   4.8 35   10 36.7   3.8 5.0   0.6 SW | 229 19.1   1.9 WSW | 257 0.00 7.0   0.0 71.8   0.8 0.00 53.7   2.6 65.4   8.1 29.3   2.1
Musgrove Creek 9/2/26 1450 61.7   5.2 40   10 36.9   2.3 4.9   0.7 ENE | 57 13.7   2.6 E | 81 0.00 10.3   0.0 60.6   0.3 0.00 49.9   5.3 63.4   7.4 16.4   4.5
East Carson 11/23/24 0110 28.6   28.4 - - 4.7   11.0 SW | 220 14.7   10.1 SW | 219 0.02 - 50.9   0.1 0.02 -25.9   79.1 42.9   14.6 16.0   10.7
Kings Canyon 9/2/26 1450 64.0   7.7 33   12 34.2   4.7 8.8   1.3 SSW | 206 19.4   1.1 SSW | 202 0.00 4.2   0.0 67.7   2.4 0.00 51.1   10.0 65.0   8.5 28.1   3.6
Carson City (Voltaire Canyon) 9/2/26 1450 66.3   8.7 28   9 31.9   2.9 20.2   9.2 SSW | 210 31.4   8.2 SSW | 205 0.00 2.8   0.0 78.8   0.3 0.00 53.6   7.6 68.0   7.9 32.0   0.0
Jacks Valley 9/2/26 1450 65.8   7.3 31   10 34.4   3.7 12.7   3.3 W | 264 24.8   0.6 W | 263 0.00 4.5   0.1 75.3   5.6 0.00 52.3   5.6 67.2   7.6 33.0   7.2
Genoa 9/2/26 1450 67.9   6.6 29   8 34.8   2.1 4.5   2.9 W | 262 19.6   12.7 E | 92 0.00 2.5   0.1 79.5   5.6 0.00 53.0   8.6 71.2   5.3 21.7   6.2
South Genoa (Walleys Hot Springs) 9/2/26 1450 68.9   6.5 27   9 33.5   4.6 9.6   1.3 SW | 235 22.6   1.1 SW | 226 0.00 4.9   0.3 74.2   0.2 0.00 54.2   2.4 70.9   6.8 27.4   3.5
SW Gardnerville (HWY 88) 9/2/26 1450 69.6   4.5 25   7 32.5   4.9 17.0   1.0 S | 174 28.3   0.8 S | 185 0.00 2.8   0.0 69.1   1.1 0.00 51.7   7.9 70.3   5.5 28.7   2.9
Sheridan 9/2/26 1450 69.6   4.3 25   11 31.9   10.4 6.0   3.8 SW | 229 15.2   10.8 NW | 313 0.00 1.1   0.0 71.5   3.0 0.00 50.8   7.4 71.3   4.9 27.1   2.5
Ruhenstroth 9/2/26 1450 66.7   7.7 23   9 27.5   5.2 14.4   3.0 SSW | 197 25.7   3.3 SSW | 212 0.00 6.9   0.2 74.9   6.2 0.00 54.4   5.6 69.1   6.2 31.3   0.1
Double Spring 9/2/26 1450 63.1   7.4 26   10 27.5   5.1 12.4   1.5 W | 259 23.5   4.2 WNW | 286 0.00 25.1   0.5 71.8   5.4 0.00 38.9   12.0 65.0   6.5 30.9   7.2
North Topaz Lake 9/2/26 1450 68.0   6.3 23   9 29.0   6.8 12.0   1.8 S | 186 26.7   9.2 S | 171 0.00 7.8   0.2 82.7   8.4 0.00 52.8   8.2 69.1   6.5 28.0   2.4
Wild Oat Mountain 9/2/26 1450 65.9   6.3 26   11 30.2   7.9 15.4   4.5 SSW | 205 29.9   1.0 S | 170 0.00 5.7   0.2 72.0   5.0 0.00 49.8   8.4 67.3   5.7 33.7   0.8
Smith Valley 9/2/26 1450 71.6   7.8 22   9 30.4   6.4 11.0   1.7 SW | 214 22.1   0.4 S | 172 0.00 2.8   0.0 74.8   2.3 0.00 53.7   6.0 72.6   7.7 27.2   4.1
Pine Grove Mountain 9/2/26 1450 60.5   6.4 22   7 20.9   4.1 11.6   3.7 SW | 235 20.6   4.6 SW | 224 0.00 6.8   0.2 64.0   4.3 0.00 43.4   7.2 61.1   7.0 25.1   0.9
Paradise Hill 9/2/26 1450 65.8   13.5 30   11 33.4   0.5 17.6   6.2 SW | 224 37.4   17.5 WSW | 238 0.00 10.0   0.2 73.7   5.3 0.00 54.1   1.2 67.4   13.0 39.9   12.9
Winnemucca 9/2/26 1450 67.9   11.5 27   7 32.4   1.7 14.2   6.8 WSW | 238 22.2   6.7 WSW | 244 0.00 5.7   0.1 74.0   1.5 0.00 51.9   13.0 68.6   11.9 33.3   10.8
NE Elko 9/2/26 1450 69.2   10.7 18   2 23.7   5.6 10.2   7.3 WSW | 237 19.8   8.2 SW | 232 0.00 5.7   0.1 72.0   0.0 0.00 52.1   5.9 70.2   11.5 27.0   8.7
North Elko 9/2/26 1450 66.2   12.8 19   5 22.4   3.3 11.7   3.7 SW | 236 23.0   4.0 WSW | 244 0.00 24.7   0.1 71.7   1.4 0.00 50.5   7.0 67.3   13.5 27.8   3.9
South Elko 9/2/26 1450 66.0   10.6 19   5 22.9   1.9 13.0   1.0 W | 278 22.4   2.1 NW | 313 0.00 13.6   0.1 68.9   2.1 0.00 50.9   4.8 - 24.5   10.7
Lamoille 9/2/26 1450 67.1   8.3 18   0 22.7   7.0 12.5   9.9 W | 264 21.4   10.2 W | 272 0.00 6.3   0.1 66.6   0.9 0.00 51.6   0.1 70.0   6.7 28.0   6.6
Reid Gardner Sub 9/2/26 1450 96.9   0.4 7   16 22.1   29.8 17.6   5.2 SSW | 202 29.3   7.2 S | 181 0.00 24.1   0.4 88.0   2.0 0.00 73.9   2.0 97.4   0.1 32.8   9.4
Corn Creek 9/2/26 1450 90.9   0.9 7   6 17.9   14.8 4.2   18.0 N | 4 12.8   23.0 N | 0 0.00 3.1   0.1 89.2   2.1 0.00 68.7   3.2 91.9   0.1 22.2   17.8
Lucky Strike 9/2/26 1450 79.5   1.0 6   7 6.6   16.7 5.1   12.4 N | 9 11.2   14.8 N | 9 0.00 3.1   0.1 85.1   0.7 0.00 61.6   3.2 80.7   1.1 23.7   10.1
Lower Angel Peak 9/2/26 1450 74.0   1.0 8   8 8.6   15.2 4.1   6.6 N | 6 11.7   11.7 NNW | 342 0.00 3.1   0.0 72.9   1.4 0.00 53.7   6.3 75.5   0.8 18.8   9.7
Angel Peak 9/2/26 1450 62.9   4.6 8   12 0.5   17.0 11.7   8.8 S | 178 17.4   16.9 S | 172 0.00 2.6   0.1 69.5   1.8 0.00 50.9   0.4 66.7   5.8 45.2   7.9
Upper Kyle Canyon 9/2/26 1450 64.2   0.6 9   11 3.2   19.7 10.2   3.0 ESE | 121 21.7   1.4 ESE | 123 0.00 7.7   0.0 73.8   0.7 0.00 56.3   0.5 68.1   0.3 36.5   5.6
Mt Charleston 9/2/26 1450 64.7   0.6 9   11 3.9   19.4 4.7   0.9 NW | 306 13.5   6.6 WSW | 239 0.00 13.3   0.0 68.6   0.5 0.00 56.0   1.4 67.8   0.2 31.9   2.2
Mid Kyle Canyon 9/2/26 1450 72.6   0.3 7   10 5.3   20.1 13.8   4.1 WSW | 257 23.1   3.4 W | 272 0.00 5.8   0.0 73.6   0.9 0.00 57.1   2.5 75.6   2.2 29.4   3.6
Blue Diamond 9/2/26 1450 86.2   0.5 8   6 17.6   13.3 14.0   1.2 WNW | 289 25.0   0.4 WNW | 292 0.00 1.2   0.1 87.3   1.5 0.00 67.0   4.5 87.1   1.3 28.6   0.1
Artesian Sub 9/2/26 1450 96.3   1.5 6   6 19.9   16.9 8.8   3.4 S | 181 20.9   6.0 SSE | 154 0.00 11.7   0.0 93.4   0.4 0.00 77.6   0.8 96.9   1.8 23.4   0.9
North Henderson 9/2/26 1450 95.8   2.1 7   5 21.6   15.3 14.7   1.5 SW | 218 24.5   2.9 SW | 218 0.00 10.4   0.0 96.8   0.8 0.00 80.4   0.6 97.6   0.9 25.3   3.4
Sandy Valley 9/2/26 1450 87.8   0.4 9   6 23.1   12.7 12.3   0.0 SW | 216 19.6   0.1 SW | 221 0.00 8.0   0.2 88.8   2.7 0.00 69.8   3.5 88.5   1.2 22.8   0.6
Searchlight 9/2/26 1450 88.5   0.2 11   12 26.8   19.0 16.0   1.9 SSE | 168 26.4   0.9 S | 174 0.00 5.9   0.1 87.4   1.3 0.00 65.1   2.8 89.9   0.8 26.4   2.2
Laughlin 9/2/26 1450 100.3   0.0 12   20 38.1   26.5 11.2   7.0 SSE | 159 20.5   8.8 SE | 143 0.00 4.5   0.1 99.3   1.4 0.00 80.5   5.5 102.1   1.2 22.2   7.7
31Mission Hills 9/2/26 1450 93.2   1.8 6   6 17.0   16.8 18.0   8.2 WSW | 238 31.3   3.9 WSW | 253 0.00 7.0   0.4 92.5   1.4 0.00 74.8   2.0 94.4   1.3 31.3   12.5
32 Enterprise Sierra Cliffs 9/2/26 1450 87.5   1.2 6   6 10.6   17.4 19.8   5.4 SW | 223 36.4   12.4 SW | 227 0.00 1.4   0.1 90.3   3.9 0.00 72.3   4.0 88.6   1.6 36.4   10.1
29 Calico Basin 9/2/26 1450 84.3   0.8 6   4 8.8   13.3 21.3   0.2 SW | 222 32.0   0.4 SW | 228 0.00 2.4   0.1 82.8   2.7 0.00 69.3   2.8 85.3   1.1 43.2   3.9
28 Indian Springs 9/2/26 1450 89.6   0.1 4   4 5.5   16.2 19.1   2.9 SW | 231 27.7   4.7 SW | 232 0.00 4.6   0.1 85.9   2.2 0.00 62.7   6.7 90.8   0.7 33.7   1.4
30 Jean 9/2/26 1450 88.4   0.9 6   5 12.8   14.8 18.7   5.8 WSW | 239 30.9   10.6 WSW | 240 0.00 5.2   0.2 89.6   2.7 0.00 67.4   3.0 88.6   1.8 30.9   3.5
VC Highlands NW 9/2/26 1450 56.9   11.1 39   20 32.2   8.5 6.8   2.0 W | 280 19.0   4.6 NNW | 330 0.00 1.6   0.1 65.0   6.9 0.00 47.0   8.0 57.6   12.3 32.4   13.7
Glenbrook-Spooner Summit 9/2/26 1450 55.0   5.2 38   12 29.6   5.1 11.5   2.3 W | 264 24.6   4.4 W | 264 0.00 7.8   0.0 67.7   2.3 0.00 41.4   8.8 56.2   6.6 30.8   7.3
Hobo Hot Springs 9/2/26 1450 66.6   8.8 26   10 30.3   4.6 15.8   5.5 SSW | 210 31.8   12.7 SW | 214 0.00 1.0   0.1 68.8   3.7 0.00 48.6   8.0 68.1   9.6 34.2   9.2
Jack Valley Ranch 2 9/2/26 1450 65.2   7.3 30   11 32.9   5.7 8.0   1.7 SSW | 209 22.2   2.9 SSW | 208 0.00 2.1   0.1 73.0   2.7 0.00 51.6   8.8 67.1   8.3 35.3   0.2
Genoa North 2 9/2/26 1450 67.5   7.1 26   8 31.6   3.6 9.1   3.2 S | 188 25.7   6.6 S | 187 0.00 0.8   0.1 72.3   5.2 0.00 53.3   6.8 69.2   7.9 28.8   1.6
Mottsville 2 9/2/26 1450 68.4   6.0 23   9 29.2   7.0 7.0   3.7 S | 180 21.9   9.8 SSW | 213 0.00 1.2   0.0 70.6   2.3 0.00 52.8   4.2 70.3   6.7 36.9   14.8
Kingsbury Village 3 9/2/26 1450 54.0   6.6 40   12 30.1   2.6 3.4   0.3 WNW | 295 10.6   0.9 NW | 315 0.00 3.2   0.1 61.0   1.7 0.00 39.1   6.2 54.7   8.7 17.1   1.1
Kingsbury-Benjamin Dr 2 9/2/26 1450 56.3   5.7 37   11 30.5   3.6 3.8   0.1 W | 262 13.2   3.0 SW | 232 0.00 3.1   0.2 65.6   4.5 0.00 40.5   8.4 57.4   7.4 23.2   4.6
Smith Valley-Wellington 9/2/26 1450 70.9   9.0 19   9 26.7   7.1 9.8   3.0 WSW | 241 18.6   0.8 SW | 233 0.00 3.5   0.1 78.2   2.4 0.00 54.8   6.7 72.7   7.9 26.2   2.8
Sheridan South 2 9/2/26 1450 69.5   4.1 24   9 30.8   7.6 8.2   1.0 SSE | 154 20.5   5.3 ESE | 104 0.00 0.4   0.1 70.2   4.3 0.00 48.5   7.9 70.4   4.8 31.4   5.3
Silver Springs 9/2/26 1450 71.0   10.0 23   12 30.9   11.4 16.3   0.1 WSW | 253 26.1   1.0 WSW | 246 0.00 5.0   0.1 77.0   4.9 0.00 54.1   12.3 71.5   10.7 39.4   11.4
Fernley 9/2/26 1450 69.8   11.3 25   15 32.3   12.6 13.2   3.4 WNW | 283 19.9   1.9 WNW | 292 0.00 3.1   0.1 74.5   9.8 0.00 53.1   8.1 70.5   11.1 27.2   7.1
Spanish Springs 9/2/26 1450 67.2   10.1 28   12 32.8   6.0 11.2   2.3 WSW | 255 21.2   1.2 W | 272 0.00 10.2   0.3 75.0   4.9 0.00 52.5   0.8 68.3   10.4 25.7   1.0
Suttcliffe South 2 9/2/26 1450 68.7   8.0 25   6 31.5   0.0 18.0   6.3 WSW | 255 28.1   8.9 W | 262 0.00 4.2   0.3 72.2   9.2 0.00 47.7   11.3 70.8   10.3 31.0   2.4
Lemmon Valley North 9/2/26 1450 63.4   9.3 29   13 30.4   6.6 15.4   0.8 S | 187 24.3   0.1 S | 176 0.00 2.0   0.0 70.3   2.6 0.00 45.8   15.0 64.1   10.0 33.9   6.1
Lemmon Valley NW 3 9/2/26 1450 64.8   9.6 27   11 29.7   5.3 9.9   0.9 W | 259 19.0   0.9 SW | 234 0.00 1.3   0.1 73.5   7.4 0.00 49.8   10.9 66.7   8.3 26.1   2.5
VC Highlands North 9/2/26 1450 58.7   9.3 37   18 32.2   8.7 8.1   2.2 WSW | 255 18.5   1.7 WNW | 288 0.00 4.7   0.7 73.5   16.8 0.00 42.9   13.6 58.9   11.9 26.8   3.5
Upper Voltaire Cyn 9/2/26 1450 63.2   5.7 29   11 30.4   6.3 12.4   1.0 SSW | 201 24.8   1.0 SSW | 198 0.00 1.1   0.1 68.3   5.3 0.00 49.4   7.7 64.2   7.0 32.7   0.1
Yerington NW 9/2/26 1450 69.3   7.8 24   3 31.5   2.4 17.5   10.1 W | 261 24.8   11.6 W | 262 0.00 7.2   0.2 73.6   4.4 0.00 55.0   2.5 70.6   8.8 30.1   11.9
Spanish Springs SW 9/2/26 1450 65.7   10.0 28   12 31.9   6.0 13.6   3.9 WSW | 249 21.4   1.2 SW | 233 0.00 1.4   0.1 74.1   6.6 0.00 52.8   2.8 67.0   10.6 28.2   3.1
Cosgrave 2 8/27/26 0750 62.9   4.1 34   3 33.8   1.4 2.6   0.5 WSW | 246 4.1   1.0 W | 267 0.00 3.8   0.1 77.4   2.9 0.00 62.7   3.3 77.4   3.5 11.2   3.9
Winnemucca-Grass Valley 2 9/2/26 1450 65.5   14.2 29   11 32.1   0.5 10.3   0.7 SW | 224 22.6   5.3 SSW | 213 0.00 7.8   0.3 68.3   6.9 0.00 43.4   8.4 65.8   14.2 25.7   4.8
Winnemucca-Dutch Flat Rd 9/2/26 1450 66.7   12.6 26   10 30.7   1.1 14.3   5.0 SW | 230 23.4   5.7 SW | 236 0.00 6.2   0.0 73.8   1.8 0.00 52.4   7.6 68.1   12.1 30.8   8.9
Paradise Valley 2 9/2/26 1450 67.2   11.7 26   9 31.6   1.1 11.1   3.7 SW | 232 19.6   4.2 SW | 233 0.00 12.6   0.2 72.4   2.6 0.00 51.6   1.3 68.0   13.0 26.0   5.6
Golconda 2 9/2/26 1450 67.4   12.8 24   6 29.1   3.4 11.9   8.4 SSW | 210 18.3   9.2 SSW | 211 0.00 1.9   0.2 77.5   8.0 0.00 51.0   9.4 68.0   12.8 37.3   15.2
Battle Mountain - South 9/2/26 1450 69.0   13.2 19   5 25.2   2.6 11.3   0.8 WSW | 248 22.2   1.2 WSW | 247 0.00 9.3   0.0 73.5   1.8 0.00 42.4   15.5 70.3   13.3 27.6   2.5
Geiger Summit 9/2/26 1450 55.4   8.8 100   0 55.4   8.8 5.6   5.1 WSW | 243 16.6   1.2 WNW | 293 0.00 6.3   0.1 62.9   4.5 0.00 42.7   10.2 55.8   11.6 19.6   1.4
Combs Canyon 3 9/2/26 1450 66.2   7.5 29   11 32.6   5.1 12.6   0.0 SSW | 200 22.7   0.2 S | 175 0.00 1.0   0.0 74.0   4.0 0.00 52.2   6.9 67.5   8.4 30.7   5.0
Clear Creek 9/2/26 1450 62.4   6.5 30   10 30.3   5.0 11.4   1.6 SSE | 156 21.1   3.7 SW | 220 0.00 3.4   0.0 68.5   2.9 0.00 50.0   9.4 63.6   7.6 38.8   5.2
Eastlake 2 9/2/26 1450 64.8   5.4 32   9 34.4   3.9 9.6   8.5 SSW | 200 21.6   8.4 SW | 222 0.00 3.4   0.1 70.7   2.5 0.00 52.5   5.4 65.6   8.8 27.7   2.4
Lovelock-Colado 2 9/2/26 1450 69.3   10.5 24   10 30.9   4.6 12.9   3.8 SW | 232 20.1   4.0 SW | 215 0.00 - 74.6   4.2 0.00 45.6   8.7 71.5   10.3 28.9   7.1
Spanish Springs NW 9/2/26 1450 67.6   9.4 26   11 31.2   5.7 8.7   1.6 SW | 232 17.3   1.1 SSW | 203 0.00 12.5   0.3 69.6   4.3 0.00 53.2   2.7 68.0   9.6 21.6   2.9
Battle Mountain NW 9/2/26 1450 68.6   14.3 19   6 25.3   2.0 14.5   1.5 WSW | 255 26.8   6.7 WSW | 248 0.00 8.8   0.2 76.0   2.7 0.00 48.8   12.2 69.1   14.4 28.6   5.1
Austin 2 9/2/26 1350 66.0   6.5 15   2 17.4   2.7 15.2   1.0 WSW | 258 26.4   3.1 W | 260 0.00 2.5   0.1 74.8   4.9 0.00 37.3   11.9 68.5   4.9 26.4   7.0
Elko-Osino 9/2/26 1450 69.2   11.4 15   3 20.2   3.0 13.6   3.1 W | 261 21.6   5.0 WSW | 249 0.00 1.4   0.0 75.6   1.1 0.00 51.9   4.6 70.4   10.9 28.0   5.6
Elko-Bill Fishpond 2 9/2/26 1450 67.6   8.6 17   3 20.9   10.6 9.4   1.0 W | 263 15.3   2.7 WSW | 247 0.00 3.4   0.0 67.5   1.2 0.00 52.2   5.8 68.5   10.6 20.4   8.0
Spring Creek SE 2 9/2/26 1450 69.1   9.3 15   2 19.6   4.7 11.6   10.3 W | 269 17.3   15.6 W | 277 0.00 0.2   0.1 67.2   1.6 0.00 48.2   0.6 70.2   9.3 29.1   7.0
Spring Creek NW 9/2/26 1440 68.8   10.5 15   2 18.6   4.3 11.6   5.6 WSW | 248 22.7   8.4 WSW | 247 0.00 2.1   0.1 70.0   0.4 0.00 52.9   0.9 70.2   9.9 22.7   14.4
Elko-Moleen 9/2/26 1450 69.5   11.7 16   4 20.8   1.6 11.1   0.1 W | 264 21.1   0.4 WSW | 253 0.00 6.3   0.1 76.2   2.1 0.00 51.8   4.0 71.4   10.9 26.4   11.2
Elko-West 9/2/26 1450 69.9   10.9 16   3 21.3   3.5 10.1   6.1 W | 270 17.5   9.7 WNW | 302 0.00 32.7   0.2 65.5   0.3 0.00 51.5   0.9 71.2   10.6 24.1   10.9
Elko-Adobe Creek 9/2/26 1450 62.0   11.5 19   5 18.9   2.4 13.2   4.7 WSW | 250 27.1   1.9 WSW | 242 0.00 18.5   0.1 67.6   0.5 0.00 45.6   13.4 62.8   12.2 31.2   5.0
Tuscarora SW 9/2/26 1450 62.2   16.2 21   10 22.3   1.9 16.0   1.0 WSW | 250 25.6   10.1 WSW | 253 0.00 6.8   0.2 71.7   8.3 0.00 42.8   32.4 62.9   16.5 28.2   7.5
Elko-Monument Peak 9/2/26 1450 65.2   11.5 17   3 19.1   3.9 13.8   1.0 WSW | 246 24.8   3.2 WSW | 245 0.00 3.8   0.0 69.0   3.5 0.00 37.3   31.1 65.8   12.3 27.0   6.7
Wild Horse 9/2/26 1450 60.2 19 18.2 16.1 SSW | 204 22.1 SW | 217 0.00 4.6 65.9 0.00 46.8 61.4 34.3
Max     100.3 100 55.4 22.2 - 40.2 - 0.00 43.1 99.3 0.00 80.5 102.1 47.9
Avg     67.7 26 27.7 11.5 - 22.1 - 0.00 7.0 72.1 - - - -
Min     50.1 4 0.5 0.5 - 1.7 - 0.00 0.0 0.0 0.00 37.3 51.8 1.7

Latest Observation

114 Stations

Daily Data
as of 9/2/26 2:52 PM PDT
Station Date Daily Max Temp (°F) Daily Min Temp (°F) Daily Max RH (%) Daily Min RH (%) Wind Spd (mph) Wind Dir (°) Daily Max Wind (mph) Max Wind Dir (°) Time of Max Wind Daily Rain (In) Weekly Precip (In) Season Precip (In) Soil Moist (%) Fuel Temp (°F) Fuel Moisture (%) MinBV Day (V)
Hobart Mills 9/1/26 66.6   10.4 44.6   4.5 67   4 24   1 3.7   1.5 SW | 224 25.8   4.1 SW | 228 1608 0.00 0.03 - 7.6   0.0 57.8   3.4 7   0 12.5   0.0
Prosser Dam 9/1/26 69.0   8.4 43.5   6.6 80   10 21   3 5.7   1.6 SSW | 209 31.2   7.9 SW | 231 1548 0.00 0.09 - 5.4   0.0 57.9   3.2 8   0 12.6   0.0
West Incline Village 9/1/26 61.3   8.9 42.2   10.4 61   15 25   1 3.9   1.2 SSW | 201 21.2   5.8 S | 187 1544 0.00 0.26 - 11.8   0.0 55.5   7.2 7   1 12.5   0.0
Incline Village (Fairview Blvd) 9/1/26 64.0   8.8 45.3   8.9 60   24 27   2 2.3   1.1 WSW | 243 17.8   4.1 SW | 234 1402 0.00 0.33 - 7.7   0.0 58.8   7.2 7   1 12.6   0.0
Incline Village (Diamond Peak) 9/1/26 60.4   7.5 42.6   10.2 64   12 29   9 4.2   2.4 NW | 304 13.5   5.6 SW | 220 2359 0.00 0.03 - 2.5   0.0 -11.5   0.2 - 12.5   0.0
Incline Village (Mill Creek) 9/1/26 65.3   7.7 47.2   5.2 66   8 27   5 2.5   1.4 WSW | 240 19.9   8.0 WNW | 289 0048 0.00 0.33 - 2.9   0.0 -8.6 - 12.5   0.0
Incline Village (Lakeshore Blvd) 9/1/26 63.8   8.2 46.6   0.2 71   7 34   5 3.8   2.3 SW | 235 15.6   3.7 SW | 217 1413 0.00 0.30 - 20.7   2.1 56.1   3.6 10   0 12.4   0.0
Glenbrook 9/1/26 64.8   9.0 50.6   1.4 52   33 29   2 6.4   3.7 SW | 234 29.2   17.6 W | 267 2250 0.00 0.30 - 42.9   0.1 54.7   1.3 17   2 12.6   0.0
Zephyr Cove 9/1/26 68.5   4.9 45.8   6.1 54   18 20   6 0.9   0.3 SE | 142 12.7   2.1 SE | 142 1012 0.00 0.32 - 2.8   0.0 59.8   4.5 7   1 12.6   0.0
Kingsbury Grade 9/1/26 66.5   7.9 44.7   3.9 60   4 17   5 1.9   0.4 W | 272 15.4   3.5 WSW | 244 0947 0.00 0.28 - 2.4   0.0 58.8   5.1 6   1 12.5   0.0
South Daggett Pass (Ridge) 9/1/26 63.0   5.8 41.3   10.6 66   1 18   7 2.7   1.0 WNW | 289 20.7   0.8 WSW | 247 1431 0.00 0.29 - 2.2   0.0 53.9   6.1 8   1 12.5   0.0
Palomino Valley 9/1/26 79.4   7.4 53.3   6.1 46   3 10   4 8.1   3.3 SSW | 207 42.6   14.3 WSW | 254 1708 0.00 0.03 - 6.7   0.0 68.7   1.2 6   0 12.6   0.0
East Cold Springs 9/1/26 72.2   10.6 49.6   6.5 51   10 16   2 9.0   1.2 WSW | 243 28.0   1.7 WSW | 240 1202 0.00 0.00 - 1.6   0.0 65.8   5.1 5   0 12.6   0.0
Peavine 8/21/26 85.5   2.3 67.3   4.2 34   3 21   5 8.3   2.3 SSW | 213 26.8   4.0 SSW | 210 2106 0.00 0.00 - - - - 12.6   0.0
West Verdi Peak 9/1/26 68.6   9.6 45.3   6.1 61   5 19   2 4.1   1.5 SSE | 166 26.4   8.6 ESE | 103 1019 0.00 0.02 - 6.6   0.0 61.3   5.2 5   0 12.6   0.0
West Verdi 9/1/26 73.4   9.4 52.0   1.9 53   9 17   0 7.9   3.5 SW | 214 35.4   9.4 SSE | 162 1707 0.00 0.06 - 6.3   0.0 67.2   4.0 3   1 12.6   0.0
South Verdi 9/1/26 70.1   9.3 51.3   2.4 47   6 15   6 16.6   2.9 SW | 220 39.0   2.5 WSW | 251 1611 0.00 0.08 - 10.7   0.0 64.2   7.1 4   1 12.7   0.0
Northwest Reno 9/1/26 73.3   10.1 53.4   6.0 46   4 15   3 24.4   11.2 WSW | 249 56.5   10.7 WSW | 246 1821 0.00 0.05 - 25.2   0.1 -17.7   0.0 - 12.6   0.0
North Lawton 8/27/26 85.2   2.6 66.7   6.0 35   16 18   2 8.9   1.0 SW | 230 25.0   2.4 SW | 236 1526 0.00 0.00 - - - - 12.6   0.0
West Reno (Mogul) 9/1/26 73.8   8.1 50.6   3.9 52   2 15   4 7.0   1.6 WSW | 247 31.0   0.4 SW | 219 1036 0.00 0.00 - 19.6   0.0 68.8   4.8 1   1 12.6   0.0
Caughlin (Hunter Lake Trail) 9/1/26 74.0   8.7 51.6   7.5 51   6 15   4 9.7   3.7 WSW | 249 38.8   4.4 WSW | 256 1720 0.00 0.12 - 16.6   0.0 66.5   6.5 6   0 12.6   0.0
ArrowCreek 9/1/26 74.6   7.8 52.0   3.2 47   2 14   2 8.0   2.5 S | 179 31.9   7.1 SSE | 157 1657 0.00 0.14 - - - - 12.4   0.0
Tracy 9/1/26 80.1   8.6 59.9   2.2 42   3 15   2 12.6   6.4 WSW | 250 36.4   7.2 WSW | 248 1749 0.00 0.09 - 16.1   0.1 72.0   3.7 6   1 12.7   0.0
Virginia Highlands 9/1/26 70.4   8.4 49.6   10.0 52   12 20   2 6.2   2.7 WSW | 243 26.0   7.2 SW | 223 1620 0.00 0.12 - 8.0   0.0 63.7   7.3 5   1 12.6   0.0
Virginia City 9/1/26 70.3   6.0 50.8   9.5 48   7 17   2 9.5   3.2 SW | 224 30.4   5.3 SSW | 205 0032 0.00 0.12 - 4.8   0.0 64.0   7.6 5   1 12.7   0.0
Six Mile Canyon 9/1/26 80.7   5.5 60.0   2.6 33   13 9   5 10.5   5.6 W | 265 28.8   9.1 WNW | 300 1519 0.00 0.10 - 12.5   0.0 72.0   3.0 3   1 12.8   0.0
Mt Rose Highway 9/1/26 64.0   9.5 44.4   11.5 46   5 23   5 5.2   0.1 SSW | 196 41.0   13.5 WSW | 246 0010 0.00 0.23 - 7.4   0.0 58.1   6.5 5   1 12.6   0.0
Pleasant Valley 9/1/26 75.2   8.4 51.3   0.6 54   5 16   1 10.8   6.5 WSW | 238 34.3   11.6 SW | 220 1701 0.00 0.14 - 2.4   0.0 70.2   4.2 7   1 12.6   0.0
New Washoe City 9/1/26 73.4   8.5 54.6   2.7 47   2 15   0 10.6   4.2 SW | 224 30.7   7.0 WSW | 252 1430 0.00 0.08 - 3.5   0.0 65.7   5.6 7   1 12.6   0.0
Franktown Creek 9/1/26 73.5   7.5 55.6   5.9 46   17 19   1 4.2   1.8 SW | 233 27.2   5.7 NNW | 342 0245 0.00 0.14 - 7.1   0.0 66.2   1.8 7   1 12.7   0.0
Musgrove Creek 9/1/26 70.8   6.9 51.8   5.9 54   2 20   1 2.8   0.3 SSW | 199 20.9   1.9 SSW | 195 1420 0.00 0.21 - 10.2   0.0 64.7   6.9 7   1 12.6   0.0
East Carson 11/22/24 63.8   0.3 41.7   4.6 85   21 21   9 14.9   6.0 SW | 224 46.6   12.7 S | 171 1835 0.05 0.05 4.48 2.5   0.0 53.9   0.3 9   0 12.6   0.0
Kings Canyon 9/1/26 73.5   6.9 55.2   4.1 34   22 17   1 7.9   1.4 SW | 214 31.7   1.1 WSW | 244 0354 0.00 0.13 - 4.1   0.0 67.8   3.1 4   2 12.6   0.0
Carson City (Voltaire Canyon) 9/1/26 75.9   6.4 56.8   2.7 36   12 15   1 12.8   3.6 SSW | 210 33.2   1.6 SW | 229 0003 0.00 0.00 - 2.8   0.0 -11.0   0.0 - 12.7   0.0
Jacks Valley 9/1/26 74.8   6.0 54.8   0.8 34   23 14   5 9.7   3.8 WSW | 255 41.0   11.6 W | 281 2347 0.00 0.24 - 4.6   0.0 68.2   3.0 3   2 12.7   0.0
Genoa 9/1/26 76.5   6.8 55.4   0.9 40   19 14   4 2.1   0.7 WSW | 250 20.0   1.2 WSW | 247 2055 0.00 0.15 - 2.4   0.1 68.2   2.0 7   1 12.4   0.0
South Genoa (Walleys Hot Springs) 9/1/26 77.7   5.8 56.5   10.7 43   45 13   6 7.1   2.0 SW | 233 33.4   0.9 SSW | 212 2354 0.00 0.13 - 4.8   0.0 71.4   0.3 6   2 12.6   0.0
SW Gardnerville (HWY 88) 9/1/26 75.8   5.4 57.3   11.2 40   44 14   4 12.0   8.0 SSE | 157 31.9   5.5 SW | 224 1459 0.00 0.03 - 2.8   0.0 66.8   2.1 7   2 9.6   0.1
Sheridan 9/1/26 76.2   7.6 53.2   2.5 35   33 12   2 6.5   2.0 S | 181 31.7   2.6 S | 188 1520 0.00 0.05 - 1.1   0.0 68.1   4.6 2   2 12.6   0.0
Ruhenstroth 9/1/26 75.3   8.7 56.8   7.1 35   29 13   2 11.6   6.7 SSW | 202 31.4   4.6 S | 177 1236 0.00 0.06 - 7.0   0.0 69.0   3.5 5   1 12.7   0.0
Double Spring 9/1/26 71.4   7.3 48.7   2.9 50   23 12   6 6.8   2.4 WSW | 252 23.7   0.6 NW | 316 1227 0.00 0.14 - 25.6   0.1 63.6   5.0 7   1 12.6   0.0
North Topaz Lake 9/1/26 75.6   6.3 55.9   3.0 30   15 11   6 8.4   3.3 SW | 219 30.9   7.3 S | 190 2216 0.00 0.22 - 7.7   0.1 70.6   3.1 4   2 12.6   0.0
Wild Oat Mountain 9/1/26 72.9   8.8 53.4   5.8 33   17 12   6 12.8   7.1 SW | 220 38.9   7.8 SW | 235 1834 0.00 0.13 - 5.8   0.0 67.0   3.9 4   1 12.7   0.0
Smith Valley 9/1/26 81.0   5.5 59.8   4.4 37   16 12   2 6.8   2.1 SW | 228 25.3   1.4 SSW | 213 1658 0.00 0.12 - 2.8   0.0 72.3   1.7 6   1 12.7   0.0
Pine Grove Mountain 9/1/26 68.8   2.6 47.6   7.8 41   3 11   9 7.1   1.5 SSW | 200 26.0   2.7 W | 272 1301 0.00 0.10 - 7.1   0.3 62.3   4.0 4   1 12.7   0.0
Paradise Hill 9/1/26 80.4   7.7 55.3   11.5 35   11 16   3 8.8   3.6 WNW | 283 27.0   8.2 W | 278 1414 0.00 0.02 - 10.2   0.1 72.9   2.1 4   1 12.6   0.0
Winnemucca 9/1/26 81.7   6.2 61.0   11.6 29   10 16   4 8.2   0.5 SW | 214 23.6   0.1 WSW | 251 1605 0.00 0.02 - 5.8   0.0 76.2   2.0 5   0 12.6   0.1
NE Elko 9/1/26 82.4   2.2 46.2   7.3 60   9 10   6 8.6   4.3 SSE | 147 35.6   4.3 SSW | 202 1432 0.00 0.02 - 5.7   0.0 68.3   2.9 4   0 12.6   0.0
North Elko 9/1/26 80.9   2.2 57.5   6.5 49   11 9   8 9.1   1.0 SSW | 203 31.7   4.5 SE | 138 1304 0.00 0.05 - 24.9   0.0 70.3   1.8 7   0 12.6   0.0
South Elko 9/1/26 - 55.7   1.1 100   0 11   8 8.7   0.9 S | 180 35.2   10.3 S | 174 1327 0.00 0.03 - 13.7   0.0 68.9   4.4 6   0 12.6   0.0
Lamoille 9/1/26 76.7   3.0 51.7   3.3 67   10 12   9 10.1   4.1 S | 170 34.5   5.8 SW | 223 1416 0.00 0.02 - 6.4   0.1 67.8   2.9 6   0 12.8   0.0
Reid Gardner Sub 9/1/26 99.3   1.1 71.9   2.6 54   9 10   8 7.2   0.1 SSW | 203 30.6   0.9 S | 173 1608 0.00 0.00 - 25.6   0.1 89.8   1.5 2   0 12.6   0.0
Corn Creek 9/1/26 91.8   3.3 71.9   1.9 36   0 9   7 16.1   5.4 ESE | 110 40.0   6.6 ESE | 107 1258 0.00 0.00 - 3.1   0.0 84.4   2.8 2   0 12.5   0.1
Lucky Strike 9/1/26 79.6   2.7 64.8   4.2 25   13 9   9 13.5   3.0 SSE | 167 33.8   4.1 SE | 144 1022 0.00 0.00 - 3.2   0.0 74.5   3.0 2   1 12.6   0.1
Lower Angel Peak 9/1/26 74.8   3.0 60.0   1.8 33   13 11   12 8.8   2.7 SE | 142 28.4   4.6 SSE | 156 0518 0.00 0.00 - 3.2   0.0 70.9   1.2 2   1 12.6   0.1
Angel Peak 9/1/26 61.4   4.8 51.2   3.0 47   9 11   19 20.5   4.1 S | 187 53.2   16.8 S | 170 0314 0.00 0.00 - 2.5   0.0 58.6   3.2 5   1 12.5   0.0
Upper Kyle Canyon 9/1/26 67.8   1.9 55.8   2.6 37   13 15   14 7.2   1.1 ENE | 62 47.8   13.8 ESE | 109 1738 0.00 0.00 - 7.8   0.0 67.9   2.1 5   1 12.6   0.0
Mt Charleston 9/1/26 67.6   2.7 54.4   1.9 33   17 15   13 5.3   1.6 NW | 322 30.3   9.7 N | 350 1751 0.00 0.00 - 13.4   0.0 69.2   1.5 11   1 12.6   0.0
Mid Kyle Canyon 9/1/26 73.6   3.8 59.6   0.9 30   17 12   11 9.7   2.0 SW | 223 33.0   4.6 SW | 229 0329 0.00 0.00 - 5.8   0.0 72.8   1.1 5   1 12.8   0.1
Blue Diamond 9/1/26 88.4   4.9 71.5   1.4 22   18 11   4 8.5   2.6 W | 270 29.9   5.0 W | 280 2212 0.00 0.00 - 1.3   0.0 - - 12.6   0.0
Artesian Sub 9/1/26 99.7   3.4 78.4   2.7 36   2 10   5 5.4   0.4 SSE | 162 22.5   3.3 ESE | 122 1253 0.00 0.00 - 11.7   0.0 - 0   0 12.6   0.0
North Henderson 9/1/26 99.4   3.1 81.0   3.4 50   10 10   4 7.9   2.7 SSW | 198 29.2   8.0 SW | 227 1534 0.00 0.00 - 10.5   0.0 92.7   2.9 2   0 12.6   0.0
Sandy Valley 9/1/26 90.9   4.3 73.3   0.9 27   16 14   3 6.4   0.2 SSW | 210 23.5   2.5 SSW | 199 1628 0.00 0.00 - 8.3   0.3 83.5   4.2 3   1 12.6   0.0
Searchlight 9/1/26 89.9   2.3 68.0   2.9 77   15 19   2 9.4   1.7 S | 184 30.6   3.7 S | 174 1541 0.00 0.00 - 6.0   0.1 81.9   1.9 4   0 12.5   0.0
Laughlin 9/1/26 104.4   0.7 86.0   3.0 55   6 17   10 10.8   0.2 S | 179 30.6   12.3 SE | 134 1553 0.00 0.00 - 4.6   0.1 95.2   1.2 6   0 12.7   0.0
31Mission Hills 9/1/26 95.9   1.0 76.8   4.0 52   8 11   6 9.3   2.2 SSW | 203 43.8   5.3 SSW | 202 1432 0.00 0.00 - 7.3   0.2 89.2   1.8 5   0 13.2   0.0
32 Enterprise Sierra Cliffs 9/1/26 90.3   4.5 76.3   1.7 24   7 9   4 11.9   1.9 SSW | 206 30.1   0.2 SW | 226 1621 0.00 0.00 - 1.4   0.0 85.6   4.0 4   1 13.2   0.0
29 Calico Basin 9/1/26 86.4   5.8 72.1   3.3 17   16 8   6 14.3   4.0 SSW | 210 39.4   9.6 SW | 225 1426 0.00 0.00 - 2.6   0.1 81.9   3.3 3   1 13.2   0.0
28 Indian Springs 9/1/26 91.8   3.0 69.4   0.7 26   4 6   6 10.0   3.3 SW | 234 37.0   4.5 SW | 226 1650 0.00 0.00 - 4.7   0.1 83.5   1.5 3   0 13.2   0.0
30 Jean 9/1/26 91.0   4.4 64.3   6.7 29   7 10   3 8.6   0.2 SW | 235 27.4   6.1 WSW | 256 1331 0.00 0.00 - 5.3   0.1 83.0   4.5 3   0 13.1   0.0
VC Highlands NW 9/1/26 69.9   8.2 47.7   11.6 52   16 17   1 4.4   1.2 SW | 229 19.5   2.4 WSW | 252 1709 0.00 0.12 - 1.6   0.0 62.0   6.3 6   1 13.2   0.0
Glenbrook-Spooner Summit 9/1/26 62.8   7.0 45.5   2.2 50   23 22   3 6.4   1.6 W | 263 29.1   6.2 W | 262 0007 0.00 0.31 - 7.9   0.0 61.1   1.5 7   2 13.2   0.0
Hobo Hot Springs 9/1/26 77.7   6.1 54.1   9.6 41   45 11   4 5.8   2.0 SW | 226 35.2   9.8 SW | 221 2359 0.00 0.13 - 1.1   0.0 66.3   1.3 6   2 13.2   0.0
Jack Valley Ranch 2 9/1/26 75.4   5.0 56.1   1.5 33   19 15   1 7.5   2.3 WSW | 258 35.0   9.7 WSW | 257 0514 0.00 0.23 - 2.2   0.0 69.6   2.5 5   2 13.2   0.0
Genoa North 2 9/1/26 77.0   5.6 56.3   2.5 35   20 11   6 6.4   3.0 SW | 225 37.1   12.7 WSW | 240 2336 0.00 0.10 - 0.9   0.0 70.0   0.5 6   1 13.2   0.0
Mottsville 2 9/1/26 76.9   5.4 56.9   9.4 42   38 10   4 5.1   1.2 SW | 236 22.2   8.3 NW | 306 2353 0.00 0.18 - 1.3   0.1 67.7   0.6 7   2 13.2   0.0
Kingsbury Village 3 9/1/26 63.4   6.0 41.1   8.2 63   10 18   5 2.5   0.3 NW | 322 18.3   2.6 S | 169 1038 0.00 0.29 - 3.2   0.0 54.4   5.3 9   2 13.2   0.0
Kingsbury-Benjamin Dr 2 9/1/26 64.7   4.9 42.7   10.2 60   2 16   6 2.1   0.4 W | 261 18.6   1.5 SW | 214 1142 0.00 0.29 - 3.3   0.2 56.6   6.4 7   1 13.2   0.0
Smith Valley-Wellington 9/1/26 80.6   6.1 59.5   4.0 28   23 10   4 8.4   1.8 SW | 233 29.3   6.1 SW | 222 1842 0.00 0.03 - 3.6   0.0 72.6   4.4 5   1 13.2   0.0
Sheridan South 2 9/1/26 75.2   7.9 55.2   8.1 35   40 13   2 7.1   2.8 S | 176 33.9   4.2 SE | 134 2220 0.00 0.07 - 0.5   0.0 67.5   3.0 6   1 13.2   0.0
Silver Springs 9/1/26 82.5   5.8 62.5   8.3 28   15 9   2 15.2   7.2 WSW | 256 45.6   13.7 W | 262 2354 0.00 0.08 - 5.1   0.0 75.0   2.5 6   1 13.1   0.0
Fernley 9/1/26 82.4   6.0 60.9   6.0 35   0 9   3 10.7   4.8 WNW | 297 42.0   19.5 W | 275 2122 0.00 0.04 - 3.2   0.0 75.6   3.0 5   0 13.2   0.0
Spanish Springs 9/1/26 78.8   7.9 53.3   5.5 50   8 12   3 6.5   2.4 WSW | 246 31.6   5.7 WSW | 257 1711 0.00 0.06 - 10.6   0.0 72.0   3.4 6   1 13.2   0.0
Suttcliffe South 2 9/1/26 81.1   3.9 57.0   5.5 36   5 10   2 13.2   6.1 WSW | 250 43.8   19.9 W | 273 2113 0.00 0.00 - 4.5   0.0 72.5   2.5 5   0 13.2   0.0
Lemmon Valley North 9/1/26 74.1   7.6 49.3   10.3 47   8 12   2 12.0   6.0 SSW | 211 33.2   2.2 SSW | 211 1629 0.00 0.02 - 2.1   0.0 67.1   1.4 6   0 13.2   0.0
Lemmon Valley NW 3 9/1/26 75.0   9.2 52.5   6.5 45   10 11   3 10.3   4.3 WSW | 250 33.3   8.1 SW | 214 1730 0.00 0.02 - 1.3   0.0 69.3   0.4 6   1 13.2   0.0
VC Highlands North 9/1/26 70.8   8.0 47.8   1.8 50   4 16   2 6.9   3.4 SW | 223 25.5   6.2 SW | 214 1738 0.00 0.09 - 5.1   0.1 63.7   4.6 7   1 13.2   0.0
Upper Voltaire Cyn 9/1/26 71.2   7.3 52.2   6.3 36   11 17   2 9.9   4.0 SSW | 206 32.8   4.3 WSW | 237 0453 0.00 0.23 - 1.2   0.0 66.3   5.1 7   1 13.2   0.0
Yerington NW 9/1/26 79.4   6.5 57.4   11.0 60   21 12   1 10.0   5.8 SW | 236 39.7   15.4 WSW | 256 2102 0.00 0.20 - 7.3   0.0 69.8   1.6 9   1 13.2   0.0
Spanish Springs SW 9/1/26 77.6   7.6 52.8   0.6 42   2 12   3 7.9   2.5 SW | 236 31.4   4.1 WSW | 243 1715 0.00 0.05 - 1.5   0.0 69.0   3.9 6   1 13.2   0.0
Cosgrave 2 8/26/26 94.1   3.1 59.4   0.6 40   15 11   2 5.7   1.4 SSW | 205 26.1   5.0 WSW | 249 1345 0.00 0.00 - 4.0   0.1 82.4   4.3 5   1 13.2   0.0
Winnemucca-Grass Valley 2 9/1/26 80.5   5.8 51.8   12.1 65   10 13   1 5.6   1.4 SW | 223 23.4   7.7 W | 276 2317 0.00 0.14 - 8.0   0.0 71.0   3.0 7   1 13.2   0.0
Winnemucca-Dutch Flat Rd 9/1/26 80.4   7.3 60.0   8.6 31   5 14   3 8.5   2.8 W | 261 30.3   9.7 WSW | 241 2214 0.00 0.07 - 6.2   0.0 73.0   0.4 4   1 13.2   0.0
Paradise Valley 2 9/1/26 81.0   5.7 52.9   12.6 41   12 14   4 4.9   1.1 NNW | 338 20.4   1.0 WSW | 248 1413 0.00 0.08 - 12.9   0.1 67.7   1.2 4   1 13.2   0.0
Golconda 2 9/1/26 83.1   4.9 60.4   11.7 37   23 11   1 8.8   4.1 W | 262 37.9   19.3 W | 269 2239 0.00 0.11 - 2.0   0.1 74.7   1.7 7   1 13.1   0.1
Battle Mountain - South 9/1/26 83.7   5.3 57.9   18.4 38   6 11   0 5.6   1.9 WSW | 246 26.8   9.9 WSW | 258 1540 0.00 0.01 - 9.2   0.0 74.3   3.3 3   0 13.1   0.0
Geiger Summit 9/1/26 67.4   7.5 45.6   11.4 100   0 100   0 6.5   3.0 SW | 220 26.6   4.7 SW | 218 1453 0.00 0.13 - 6.4   0.0 59.4   5.7 6   0 13.2   0.0
Combs Canyon 3 9/1/26 75.9   6.2 56.6   1.3 44   8 15   1 8.8   3.3 SW | 234 31.8   3.2 WSW | 252 1757 0.00 0.11 - 1.0   0.0 69.1   2.7 6   1 13.2   0.0
Clear Creek 9/1/26 71.2   6.2 53.8   1.9 36   16 18   0 9.7   3.5 SW | 224 33.5   0.1 W | 272 0438 0.00 0.23 - 3.5   0.0 65.5   2.7 8   1 13.1   0.0
Eastlake 2 9/1/26 74.4   7.0 54.8   7.1 45   34 15   0 9.6   2.8 SSW | 211 35.5   3.7 S | 182 2205 0.00 0.11 - 3.4   0.0 67.3   1.2 6   1 13.3   0.0
Lovelock-Colado 2 9/1/26 82.4   5.5 54.3   2.2 49   17 12   0 4.7   1.9 SW | 227 21.9   3.0 SSW | 203 1347 0.00 0.06 - - 70.8   4.5 5   1 13.2   0.0
Spanish Springs NW 9/1/26 78.0   7.5 55.9   6.9 41   21 12   2 6.0   0.4 SW | 223 30.8   2.5 WSW | 242 1731 0.00 0.04 - 12.8   0.1 - 4   1 12.9   0.2
Battle Mountain NW 9/1/26 83.7   5.5 61.0   17.4 36   5 10   1 7.8   2.5 SW | 236 28.2   0.1 SW | 224 1630 0.00 0.00 - 9.0   0.0 76.6   3.4 4   0 13.2   0.0
Austin 2 9/1/26 74.2   2.8 46.9   9.5 40   27 10   4 11.4   5.8 S | 183 33.4   6.0 SSW | 196 0820 0.00 0.24 - 2.3   0.0 65.4   7.1 9   1 13.2   0.0
Elko-Osino 9/1/26 82.5   4.2 47.3   6.7 61   13 8   5 7.8   2.5 SSW | 212 33.5   0.6 SW | 230 1037 0.00 0.00 - 1.5   0.0 68.1   0.2 7   0 13.2   0.0
Elko-Bill Fishpond 2 9/1/26 79.8   0.1 46.4   4.6 63   11 10   8 7.0   1.7 SSE | 166 29.3   5.3 SSW | 192 1758 0.00 0.00 - 3.5   0.0 66.9   4.3 7   1 13.2   0.0
Spring Creek SE 2 9/1/26 80.0   4.1 48.8   6.0 62   9 8   6 11.3   5.6 S | 182 36.0   11.6 SSW | 193 1354 0.00 0.00 - 0.3   0.0 66.7   0.8 6   0 13.2   0.0
Spring Creek NW 9/1/26 80.1   3.7 52.0   4.1 55   13 9   6 8.8   4.2 SSW | 209 37.1   12.0 S | 171 1019 0.00 0.00 - 2.2   0.0 67.9   2.3 5   0 13.2   0.0
Elko-Moleen 9/1/26 83.7   0.7 55.8   9.9 49   13 7   9 9.1   1.7 SSW | 194 37.6   7.7 SSW | 200 1351 0.00 0.00 - 6.5   0.1 74.3   1.4 7   0 13.0   0.0
Elko-West 9/1/26 82.9   1.9 52.5   7.5 54   12 8   12 8.6   3.2 SSE | 163 35.0   10.9 SSE | 156 1357 0.00 0.00 - - 66.5   6.4 6   0 12.8   0.0
Elko-Adobe Creek 9/1/26 76.0 55.9 44 9 12.7 SSW | 199 36.1 SSW | 209 1217 0.00 0.00 - 18.6 72.6 6 13.2
Tuscarora SW 9/1/26 79.5 48.8 35 9 8.6 SSW | 195 35.6 SSE | 164 1440 0.00 0.00 - 7.1 69.3 5 13.1
Elko-Monument Peak 9/1/26 78.2 51.2 31 9 10.4 S | 179 33.7 SSW | 193 1326 0.00 0.00 - 3.7 69.6 5 13.2
Max   104.4 86.0 100 100 24.4 - 56.5 - - 0.00 - - 42.9 95.2 17 13.3
Avg   - - - - 8.3 - - - - - - - 6.9 66.0 6 -
Min   60.4 41.1 17 6 0.9 - 12.7 - - 0.00 - - 0.3 -17.7 0 9.6

Fosberg 6Hr Max

Map

Hourly Data

Fosberg 6Hr Max

Map

Hourly Data